sensor_id;sensor_type;location;lat;lon;timestamp;P1;durP1;ratioP1;P2;durP2;ratioP2
75866;SDS011;64513;56.258;43.980;2023-03-23T12:57:27;10.32;;;5.65;;
75866;SDS011;64513;56.258;43.980;2023-03-23T13:06:36;10.58;;;5.92;;
75866;SDS011;64513;56.258;43.980;2023-03-23T13:11:54;18.95;;;6.55;;
75866;SDS011;64513;56.258;43.980;2023-03-23T13:39:52;15.13;;;7.58;;
75866;SDS011;64513;56.258;43.980;2023-03-23T13:42:20;10.67;;;6.03;;
75866;SDS011;64513;56.258;43.980;2023-03-23T13:45:08;13.03;;;6.92;;
75866;SDS011;64513;56.258;43.980;2023-03-23T13:53:25;15.60;;;7.47;;
75866;SDS011;64513;56.258;43.980;2023-03-23T13:56:04;12.93;;;6.80;;
75866;SDS011;64513;56.258;43.980;2023-03-23T14:01:43;14.25;;;7.45;;
75866;SDS011;64513;56.258;43.980;2023-03-23T14:04:41;13.03;;;6.37;;
75866;SDS011;64513;56.258;43.980;2023-03-23T14:06:53;14.85;;;7.10;;
75866;SDS011;64513;56.258;43.980;2023-03-23T14:12:04;12.45;;;7.12;;
75866;SDS011;64513;56.258;43.980;2023-03-23T14:14:31;12.90;;;6.97;;
75866;SDS011;64513;56.258;43.980;2023-03-23T14:19:44;13.58;;;7.03;;
75866;SDS011;64513;56.258;43.980;2023-03-23T14:25:15;12.23;;;7.00;;
75866;SDS011;64513;56.258;43.980;2023-03-23T14:27:42;12.68;;;7.30;;
75866;SDS011;64513;56.258;43.980;2023-03-23T14:30:08;14.55;;;7.55;;
75866;SDS011;64513;56.258;43.980;2023-03-23T14:32:53;14.10;;;7.20;;
75866;SDS011;64513;56.258;43.980;2023-03-23T14:35:23;13.60;;;7.55;;
75866;SDS011;64513;56.258;43.980;2023-03-23T14:38:10;14.57;;;7.40;;
75866;SDS011;64513;56.258;43.980;2023-03-23T14:40:52;14.87;;;7.20;;
75866;SDS011;64513;56.258;43.980;2023-03-23T14:43:19;12.82;;;7.37;;
75866;SDS011;64513;56.258;43.980;2023-03-23T14:45:47;12.35;;;7.00;;
75866;SDS011;64513;56.258;43.980;2023-03-23T14:48:31;12.82;;;6.55;;
75866;SDS011;64513;56.258;43.980;2023-03-23T14:50:56;12.23;;;6.77;;
75866;SDS011;64513;56.258;43.980;2023-03-23T14:53:25;13.25;;;6.42;;
75866;SDS011;64513;56.258;43.980;2023-03-23T14:56:12;14.15;;;7.17;;
75866;SDS011;64513;56.258;43.980;2023-03-23T14:58:38;18.73;;;7.20;;
75866;SDS011;64513;56.258;43.980;2023-03-23T15:03:52;14.27;;;6.63;;
75866;SDS011;64513;56.258;43.980;2023-03-23T15:06:17;15.45;;;6.53;;
75866;SDS011;64513;56.258;43.980;2023-03-23T15:08:44;10.85;;;6.40;;
75866;SDS011;64513;56.258;43.980;2023-03-23T15:13:57;11.50;;;7.05;;
75866;SDS011;64513;56.258;43.980;2023-03-23T15:22:18;16.20;;;7.83;;
75866;SDS011;64513;56.258;43.980;2023-03-23T15:30:32;14.15;;;8.60;;
75866;SDS011;64513;56.258;43.980;2023-03-23T15:38:48;16.12;;;8.30;;
75866;SDS011;64513;56.258;43.980;2023-03-23T15:43:58;15.25;;;8.10;;
75866;SDS011;64513;56.258;43.980;2023-03-23T15:46:24;16.73;;;8.57;;
75866;SDS011;64513;56.258;43.980;2023-03-23T15:51:36;14.03;;;8.28;;
75866;SDS011;64513;56.258;43.980;2023-03-23T15:54:00;16.55;;;7.83;;
75866;SDS011;64513;56.258;43.980;2023-03-23T15:56:25;14.75;;;7.55;;
75866;SDS011;64513;56.258;43.980;2023-03-23T15:58:51;15.27;;;7.60;;
75866;SDS011;64513;56.258;43.980;2023-03-23T16:06:49;15.45;;;7.60;;
75866;SDS011;64513;56.258;43.980;2023-03-23T16:09:16;12.88;;;7.25;;
75866;SDS011;64513;56.258;43.980;2023-03-23T16:11:41;13.70;;;7.57;;
75866;SDS011;64513;56.258;43.980;2023-03-23T16:14:06;13.90;;;7.65;;
75866;SDS011;64513;56.258;43.980;2023-03-23T16:16:31;16.07;;;7.85;;
75866;SDS011;64513;56.258;43.980;2023-03-23T16:18:59;15.55;;;8.05;;
75866;SDS011;64513;56.258;43.980;2023-03-23T16:21:27;15.50;;;8.45;;
75866;SDS011;64513;56.258;43.980;2023-03-23T16:23:51;14.17;;;8.10;;
75866;SDS011;64513;56.258;43.980;2023-03-23T16:26:16;15.32;;;8.28;;
75866;SDS011;64513;56.258;43.980;2023-03-23T16:28:41;14.83;;;7.83;;
75866;SDS011;64513;56.258;43.980;2023-03-23T16:31:06;14.38;;;8.05;;
75866;SDS011;64513;56.258;43.980;2023-03-23T16:33:30;14.60;;;7.08;;
75866;SDS011;64513;56.258;43.980;2023-03-23T16:35:55;15.13;;;8.73;;
75866;SDS011;64513;56.258;43.980;2023-03-23T16:38:20;14.30;;;7.87;;
75866;SDS011;64513;56.258;43.980;2023-03-23T16:40:44;14.18;;;8.13;;
75866;SDS011;64513;56.258;43.980;2023-03-23T16:43:09;17.77;;;8.33;;
75866;SDS011;64513;56.258;43.980;2023-03-23T16:45:34;14.53;;;7.83;;
75866;SDS011;64513;56.258;43.980;2023-03-23T16:48:01;15.43;;;7.73;;
75866;SDS011;64513;56.258;43.980;2023-03-23T16:50:26;16.87;;;8.03;;
75866;SDS011;64513;56.258;43.980;2023-03-23T16:52:52;15.13;;;7.70;;
75866;SDS011;64513;56.258;43.980;2023-03-23T16:55:16;16.97;;;8.10;;
75866;SDS011;64513;56.258;43.980;2023-03-23T16:57:41;14.07;;;7.17;;
75866;SDS011;64513;56.258;43.980;2023-03-23T17:00:07;18.27;;;8.27;;
75866;SDS011;64513;56.258;43.980;2023-03-23T17:02:35;15.50;;;7.90;;
75866;SDS011;64513;56.258;43.980;2023-03-23T17:04:59;15.43;;;7.47;;
75866;SDS011;64513;56.258;43.980;2023-03-23T17:07:25;12.70;;;7.15;;
75866;SDS011;64513;56.258;43.980;2023-03-23T17:09:50;13.80;;;6.90;;
75866;SDS011;64513;56.258;43.980;2023-03-23T17:12:14;14.03;;;7.60;;
75866;SDS011;64513;56.258;43.980;2023-03-23T17:14:39;15.90;;;8.10;;
75866;SDS011;64513;56.258;43.980;2023-03-23T17:17:03;15.15;;;7.65;;
75866;SDS011;64513;56.258;43.980;2023-03-23T17:19:27;16.37;;;8.10;;
75866;SDS011;64513;56.258;43.980;2023-03-23T17:21:52;14.13;;;7.72;;
75866;SDS011;64513;56.258;43.980;2023-03-23T17:24:18;15.00;;;7.83;;
75866;SDS011;64513;56.258;43.980;2023-03-23T17:26:43;20.37;;;8.38;;
75866;SDS011;64513;56.258;43.980;2023-03-23T17:29:07;16.02;;;7.42;;
75866;SDS011;64513;56.258;43.980;2023-03-23T17:31:31;17.23;;;8.40;;
75866;SDS011;64513;56.258;43.980;2023-03-23T17:33:56;15.78;;;7.92;;
75866;SDS011;64513;56.258;43.980;2023-03-23T17:36:20;23.23;;;8.20;;
75866;SDS011;64513;56.258;43.980;2023-03-23T17:38:44;17.23;;;7.90;;
75866;SDS011;64513;56.258;43.980;2023-03-23T17:41:09;15.38;;;8.05;;
75866;SDS011;64513;56.258;43.980;2023-03-23T17:43:34;15.18;;;7.83;;
75866;SDS011;64513;56.258;43.980;2023-03-23T17:46:03;15.75;;;8.13;;
75866;SDS011;64513;56.258;43.980;2023-03-23T17:48:27;18.07;;;8.17;;
75866;SDS011;64513;56.258;43.980;2023-03-23T17:50:53;17.20;;;7.95;;
75866;SDS011;64513;56.258;43.980;2023-03-23T17:53:18;15.35;;;7.70;;
75866;SDS011;64513;56.258;43.980;2023-03-23T17:55:43;14.20;;;7.28;;
75866;SDS011;64513;56.258;43.980;2023-03-23T17:58:08;17.05;;;8.40;;
75866;SDS011;64513;56.258;43.980;2023-03-23T18:00:32;15.50;;;7.50;;
75866;SDS011;64513;56.258;43.980;2023-03-23T18:02:57;13.38;;;6.97;;
75866;SDS011;64513;56.258;43.980;2023-03-23T18:05:21;14.68;;;7.28;;
75866;SDS011;64513;56.258;43.980;2023-03-23T18:07:47;16.05;;;7.75;;
75866;SDS011;64513;56.258;43.980;2023-03-23T18:10:11;14.07;;;8.08;;
75866;SDS011;64513;56.258;43.980;2023-03-23T18:12:35;18.73;;;8.50;;
75866;SDS011;64513;56.258;43.980;2023-03-23T18:15:00;17.73;;;8.25;;
75866;SDS011;64513;56.258;43.980;2023-03-23T18:17:25;17.10;;;8.03;;
75866;SDS011;64513;56.258;43.980;2023-03-23T18:20:21;15.68;;;7.95;;
75866;SDS011;64513;56.258;43.980;2023-03-23T18:22:36;15.98;;;7.67;;
75866;SDS011;64513;56.258;43.980;2023-03-23T18:25:00;17.13;;;8.53;;
75866;SDS011;64513;56.258;43.980;2023-03-23T18:27:27;15.58;;;7.42;;
75866;SDS011;64513;56.258;43.980;2023-03-23T18:29:52;16.60;;;8.30;;
75866;SDS011;64513;56.258;43.980;2023-03-23T18:32:17;15.08;;;8.30;;
75866;SDS011;64513;56.258;43.980;2023-03-23T18:34:42;17.70;;;8.20;;
75866;SDS011;64513;56.258;43.980;2023-03-23T18:37:06;19.00;;;8.57;;
75866;SDS011;64513;56.258;43.980;2023-03-23T18:39:32;18.23;;;9.00;;
75866;SDS011;64513;56.258;43.980;2023-03-23T18:41:57;16.60;;;8.65;;
75866;SDS011;64513;56.258;43.980;2023-03-23T18:44:22;20.55;;;9.10;;
75866;SDS011;64513;56.258;43.980;2023-03-23T18:46:46;17.57;;;8.60;;
75866;SDS011;64513;56.258;43.980;2023-03-23T18:49:11;16.23;;;8.50;;
75866;SDS011;64513;56.258;43.980;2023-03-23T18:51:35;18.50;;;9.03;;
75866;SDS011;64513;56.258;43.980;2023-03-23T18:53:59;19.35;;;9.63;;
75866;SDS011;64513;56.258;43.980;2023-03-23T18:56:23;19.95;;;10.00;;
75866;SDS011;64513;56.258;43.980;2023-03-23T18:58:47;20.02;;;9.73;;
75866;SDS011;64513;56.258;43.980;2023-03-23T19:01:15;20.83;;;9.80;;
75866;SDS011;64513;56.258;43.980;2023-03-23T19:03:40;21.40;;;10.35;;
75866;SDS011;64513;56.258;43.980;2023-03-23T19:06:05;21.65;;;10.20;;
75866;SDS011;64513;56.258;43.980;2023-03-23T19:08:31;18.98;;;10.20;;
75866;SDS011;64513;56.258;43.980;2023-03-23T19:13:22;19.73;;;9.80;;
75866;SDS011;64513;56.258;43.980;2023-03-23T19:15:46;23.20;;;11.10;;
75866;SDS011;64513;56.258;43.980;2023-03-23T19:18:13;20.17;;;10.78;;
75866;SDS011;64513;56.258;43.980;2023-03-23T19:20:36;22.95;;;11.35;;
75866;SDS011;64513;56.258;43.980;2023-03-23T19:23:02;22.48;;;11.35;;
75866;SDS011;64513;56.258;43.980;2023-03-23T19:25:26;22.57;;;11.67;;
75866;SDS011;64513;56.258;43.980;2023-03-23T19:27:50;21.10;;;11.88;;
75866;SDS011;64513;56.258;43.980;2023-03-23T19:30:15;24.95;;;11.65;;
75866;SDS011;64513;56.258;43.980;2023-03-23T19:32:39;22.27;;;11.93;;
75866;SDS011;64513;56.258;43.980;2023-03-23T19:35:04;23.38;;;12.33;;
75866;SDS011;64513;56.258;43.980;2023-03-23T19:37:29;24.87;;;11.87;;
75866;SDS011;64513;56.258;43.980;2023-03-23T19:39:53;33.23;;;12.50;;
75866;SDS011;64513;56.258;43.980;2023-03-23T19:42:17;23.62;;;11.97;;
75866;SDS011;64513;56.258;43.980;2023-03-23T19:44:41;24.60;;;12.35;;
75866;SDS011;64513;56.258;43.980;2023-03-23T19:47:06;24.12;;;11.57;;
75866;SDS011;64513;56.258;43.980;2023-03-23T19:49:30;29.10;;;12.53;;
75866;SDS011;64513;56.258;43.980;2023-03-23T19:51:55;28.98;;;13.13;;
75866;SDS011;64513;56.258;43.980;2023-03-23T19:54:19;25.20;;;13.00;;
75866;SDS011;64513;56.258;43.980;2023-03-23T19:56:44;24.95;;;12.05;;
75866;SDS011;64513;56.258;43.980;2023-03-23T19:59:10;24.90;;;12.80;;
75866;SDS011;64513;56.258;43.980;2023-03-23T20:01:35;22.63;;;11.83;;
75866;SDS011;64513;56.258;43.980;2023-03-23T20:04:00;24.47;;;12.33;;
75866;SDS011;64513;56.258;43.980;2023-03-23T20:06:26;25.68;;;12.50;;
75866;SDS011;64513;56.258;43.980;2023-03-23T20:08:50;24.80;;;12.63;;
75866;SDS011;64513;56.258;43.980;2023-03-23T20:11:15;26.35;;;12.23;;
75866;SDS011;64513;56.258;43.980;2023-03-23T20:13:41;26.13;;;12.47;;
75866;SDS011;64513;56.258;43.980;2023-03-23T20:16:08;26.42;;;12.78;;
75866;SDS011;64513;56.258;43.980;2023-03-23T20:18:32;28.47;;;13.18;;
75866;SDS011;64513;56.258;43.980;2023-03-23T20:23:42;24.45;;;12.70;;
75866;SDS011;64513;56.258;43.980;2023-03-23T20:26:09;23.70;;;12.67;;
75866;SDS011;64513;56.258;43.980;2023-03-23T20:28:52;25.52;;;12.58;;
75866;SDS011;64513;56.258;43.980;2023-03-23T20:31:17;29.65;;;13.43;;
75866;SDS011;64513;56.258;43.980;2023-03-23T20:33:43;25.40;;;13.00;;
75866;SDS011;64513;56.258;43.980;2023-03-23T20:36:09;22.80;;;12.43;;
75866;SDS011;64513;56.258;43.980;2023-03-23T20:38:36;27.73;;;12.70;;
75866;SDS011;64513;56.258;43.980;2023-03-23T20:41:02;25.15;;;13.22;;
75866;SDS011;64513;56.258;43.980;2023-03-23T20:43:29;26.17;;;12.63;;
75866;SDS011;64513;56.258;43.980;2023-03-23T20:48:40;25.43;;;13.18;;
75866;SDS011;64513;56.258;43.980;2023-03-23T20:51:06;25.03;;;12.97;;
75866;SDS011;64513;56.258;43.980;2023-03-23T20:53:31;27.22;;;13.83;;
75866;SDS011;64513;56.258;43.980;2023-03-23T20:55:56;26.45;;;13.30;;
75866;SDS011;64513;56.258;43.980;2023-03-23T20:58:23;28.45;;;14.07;;
75866;SDS011;64513;56.258;43.980;2023-03-23T21:00:49;26.85;;;13.58;;
75866;SDS011;64513;56.258;43.980;2023-03-23T21:03:16;27.07;;;13.57;;
75866;SDS011;64513;56.258;43.980;2023-03-23T21:05:40;25.60;;;13.28;;
75866;SDS011;64513;56.258;43.980;2023-03-23T21:08:06;23.55;;;12.70;;
75866;SDS011;64513;56.258;43.980;2023-03-23T21:10:51;25.82;;;12.75;;
75866;SDS011;64513;56.258;43.980;2023-03-23T21:13:15;26.95;;;13.38;;
75866;SDS011;64513;56.258;43.980;2023-03-23T21:15:40;25.23;;;12.80;;
75866;SDS011;64513;56.258;43.980;2023-03-23T21:18:05;27.00;;;13.45;;
75866;SDS011;64513;56.258;43.980;2023-03-23T21:20:29;26.00;;;13.03;;
75866;SDS011;64513;56.258;43.980;2023-03-23T21:22:54;24.18;;;13.32;;
75866;SDS011;64513;56.258;43.980;2023-03-23T21:25:18;23.32;;;12.40;;
75866;SDS011;64513;56.258;43.980;2023-03-23T21:27:44;26.13;;;13.43;;
75866;SDS011;64513;56.258;43.980;2023-03-23T21:30:08;27.65;;;12.55;;
75866;SDS011;64513;56.258;43.980;2023-03-23T21:32:32;26.68;;;12.82;;
75866;SDS011;64513;56.258;43.980;2023-03-23T21:34:57;26.15;;;13.08;;
75866;SDS011;64513;56.258;43.980;2023-03-23T21:37:22;23.83;;;12.73;;
75866;SDS011;64513;56.258;43.980;2023-03-23T21:39:46;27.93;;;12.77;;
75866;SDS011;64513;56.258;43.980;2023-03-23T21:42:10;23.12;;;11.97;;
75866;SDS011;64513;56.258;43.980;2023-03-23T21:44:35;25.80;;;12.93;;
75866;SDS011;64513;56.258;43.980;2023-03-23T21:47:01;26.33;;;12.93;;
75866;SDS011;64513;56.258;43.980;2023-03-23T21:49:25;28.42;;;12.85;;
75866;SDS011;64513;56.258;43.980;2023-03-23T21:51:50;25.75;;;12.75;;
75866;SDS011;64513;56.258;43.980;2023-03-23T21:54:15;22.80;;;11.97;;
75866;SDS011;64513;56.258;43.980;2023-03-23T21:56:40;22.50;;;11.73;;
75866;SDS011;64513;56.258;43.980;2023-03-23T21:59:04;24.98;;;11.85;;
75866;SDS011;64513;56.258;43.980;2023-03-23T22:01:29;22.95;;;12.30;;
75866;SDS011;64513;56.258;43.980;2023-03-23T22:03:55;23.07;;;11.97;;
75866;SDS011;64513;56.258;43.980;2023-03-23T22:06:21;23.50;;;11.80;;
75866;SDS011;64513;56.258;43.980;2023-03-23T22:08:48;23.40;;;11.30;;
75866;SDS011;64513;56.258;43.980;2023-03-23T22:11:13;25.30;;;11.93;;
75866;SDS011;64513;56.258;43.980;2023-03-23T22:13:39;22.10;;;10.80;;
75866;SDS011;64513;56.258;43.980;2023-03-23T22:16:04;20.87;;;11.30;;
75866;SDS011;64513;56.258;43.980;2023-03-23T22:18:31;21.97;;;11.60;;
75866;SDS011;64513;56.258;43.980;2023-03-23T22:20:56;21.77;;;10.63;;
75866;SDS011;64513;56.258;43.980;2023-03-23T22:23:20;20.32;;;10.80;;
75866;SDS011;64513;56.258;43.980;2023-03-23T22:25:44;21.95;;;10.53;;
75866;SDS011;64513;56.258;43.980;2023-03-23T22:28:08;19.23;;;10.57;;
75866;SDS011;64513;56.258;43.980;2023-03-23T22:30:32;21.60;;;10.65;;
75866;SDS011;64513;56.258;43.980;2023-03-23T22:32:58;22.62;;;10.75;;
75866;SDS011;64513;56.258;43.980;2023-03-23T22:35:23;23.83;;;10.95;;
75866;SDS011;64513;56.258;43.980;2023-03-23T22:37:47;19.27;;;10.13;;
75866;SDS011;64513;56.258;43.980;2023-03-23T22:40:11;21.73;;;10.90;;
75866;SDS011;64513;56.258;43.980;2023-03-23T22:42:35;20.23;;;10.35;;
75866;SDS011;64513;56.258;43.980;2023-03-23T22:45:00;22.65;;;10.88;;
75866;SDS011;64513;56.258;43.980;2023-03-23T22:47:26;22.20;;;10.68;;
75866;SDS011;64513;56.258;43.980;2023-03-23T22:49:51;21.48;;;10.85;;
75866;SDS011;64513;56.258;43.980;2023-03-23T22:52:15;21.93;;;10.93;;
75866;SDS011;64513;56.258;43.980;2023-03-23T22:54:39;25.08;;;10.88;;
75866;SDS011;64513;56.258;43.980;2023-03-23T22:57:03;23.77;;;10.30;;
75866;SDS011;64513;56.258;43.980;2023-03-23T22:59:27;20.23;;;10.35;;
75866;SDS011;64513;56.258;43.980;2023-03-23T23:01:52;24.80;;;10.13;;
75866;SDS011;64513;56.258;43.980;2023-03-23T23:04:16;21.80;;;10.87;;
75866;SDS011;64513;56.258;43.980;2023-03-23T23:06:41;21.05;;;9.85;;
75866;SDS011;64513;56.258;43.980;2023-03-23T23:09:05;22.90;;;10.58;;
75866;SDS011;64513;56.258;43.980;2023-03-23T23:11:30;18.98;;;8.93;;
75866;SDS011;64513;56.258;43.980;2023-03-23T23:13:54;18.57;;;9.65;;
75866;SDS011;64513;56.258;43.980;2023-03-23T23:16:18;18.10;;;10.13;;
75866;SDS011;64513;56.258;43.980;2023-03-23T23:18:45;20.17;;;9.05;;
75866;SDS011;64513;56.258;43.980;2023-03-23T23:21:11;17.60;;;9.15;;
75866;SDS011;64513;56.258;43.980;2023-03-23T23:23:37;19.12;;;8.90;;
75866;SDS011;64513;56.258;43.980;2023-03-23T23:26:02;19.10;;;9.23;;
75866;SDS011;64513;56.258;43.980;2023-03-23T23:28:26;17.47;;;8.43;;
75866;SDS011;64513;56.258;43.980;2023-03-23T23:30:51;17.05;;;8.65;;
75866;SDS011;64513;56.258;43.980;2023-03-23T23:33:16;17.40;;;9.15;;
75866;SDS011;64513;56.258;43.980;2023-03-23T23:35:40;15.53;;;8.38;;
75866;SDS011;64513;56.258;43.980;2023-03-23T23:38:06;21.02;;;8.75;;
75866;SDS011;64513;56.258;43.980;2023-03-23T23:40:32;18.30;;;8.95;;
75866;SDS011;64513;56.258;43.980;2023-03-23T23:42:56;19.85;;;9.50;;
75866;SDS011;64513;56.258;43.980;2023-03-23T23:45:21;18.82;;;9.08;;
75866;SDS011;64513;56.258;43.980;2023-03-23T23:47:45;16.82;;;8.80;;
75866;SDS011;64513;56.258;43.980;2023-03-23T23:50:10;16.73;;;9.10;;
75866;SDS011;64513;56.258;43.980;2023-03-23T23:52:36;19.93;;;9.60;;
75866;SDS011;64513;56.258;43.980;2023-03-23T23:57:29;16.90;;;8.48;;
75866;SDS011;64513;56.258;43.980;2023-03-23T23:59:53;18.73;;;8.80;;
